createdAt,value
2023-05-21T00:01:01.360Z,6.30
2023-05-21T00:06:30.644Z,6.35
2023-05-21T00:11:54.358Z,6.70
2023-05-21T00:17:19.637Z,6.60
2023-05-21T00:22:47.360Z,6.97
2023-05-21T00:28:13.388Z,7.03
2023-05-21T00:33:38.392Z,7.20
2023-05-21T00:39:06.420Z,7.03
2023-05-21T00:44:32.384Z,7.25
2023-05-21T00:49:58.380Z,7.50
2023-05-21T00:55:26.379Z,7.63
2023-05-21T01:00:51.434Z,7.80
2023-05-21T01:06:15.383Z,7.70
2023-05-21T01:11:51.406Z,7.95
2023-05-21T01:17:17.419Z,7.65
2023-05-21T01:22:46.409Z,8.18
2023-05-21T01:28:14.401Z,7.15
2023-05-21T01:33:45.458Z,8.02
2023-05-21T01:39:16.415Z,8.27
2023-05-21T01:44:45.403Z,8.53
2023-05-21T01:50:10.433Z,8.20
2023-05-21T01:55:37.784Z,8.60
2023-05-21T02:01:04.456Z,8.77
2023-05-21T02:06:29.450Z,7.88
2023-05-21T02:11:53.539Z,8.77
2023-05-21T02:17:21.434Z,8.80
2023-05-21T02:22:52.438Z,8.80
2023-05-21T02:28:17.440Z,8.75
2023-05-21T02:33:45.610Z,8.80
2023-05-21T02:39:10.455Z,8.18
2023-05-21T02:44:34.571Z,8.50
2023-05-21T02:50:03.458Z,8.63
2023-05-21T02:55:35.871Z,9.07
2023-05-21T03:01:02.510Z,8.90
2023-05-21T03:06:29.478Z,9.40
2023-05-21T03:11:54.477Z,9.20
2023-05-21T03:17:20.563Z,9.07
2023-05-21T03:22:48.448Z,9.45
2023-05-21T03:28:13.483Z,9.57
2023-05-21T03:33:40.484Z,10.13
2023-05-21T03:39:27.475Z,9.90
2023-05-21T03:44:52.482Z,10.13
2023-05-21T03:50:35.485Z,9.85
2023-05-21T03:56:04.492Z,10.13
2023-05-21T04:01:29.539Z,10.40
2023-05-21T04:06:54.494Z,10.57
2023-05-21T04:12:24.542Z,9.18
2023-05-21T04:17:49.644Z,9.57
2023-05-21T04:23:13.537Z,9.50
2023-05-21T04:28:42.509Z,9.65
2023-05-21T04:34:08.623Z,9.60
2023-05-21T04:39:33.503Z,9.80
2023-05-21T04:45:02.516Z,9.73
2023-05-21T04:50:30.711Z,10.07
2023-05-21T04:55:54.550Z,10.18
2023-05-21T05:01:24.590Z,9.65
2023-05-21T05:06:48.541Z,10.00
2023-05-21T05:12:14.584Z,9.75
2023-05-21T05:17:42.568Z,9.80
2023-05-21T05:23:07.555Z,9.15
2023-05-21T05:28:32.548Z,9.10
2023-05-21T05:34:00.632Z,9.55
2023-05-21T05:39:32.269Z,9.85
2023-05-21T05:44:58.618Z,9.65
2023-05-21T05:50:29.600Z,9.10
2023-05-21T05:55:54.587Z,9.70
2023-05-21T06:01:23.556Z,8.90
2023-05-21T06:06:52.004Z,8.93
2023-05-21T06:12:15.554Z,8.63
2023-05-21T06:17:40.566Z,7.75
2023-05-21T06:23:08.568Z,7.70
2023-05-21T06:28:35.579Z,7.90
2023-05-21T06:34:02.304Z,8.02
2023-05-21T06:39:36.584Z,7.10
2023-05-21T06:45:01.603Z,7.70
2023-05-21T06:50:28.609Z,7.30
2023-05-21T06:56:00.625Z,6.82
2023-05-21T07:01:31.875Z,6.20
2023-05-21T07:06:56.601Z,5.32
2023-05-21T07:12:25.609Z,5.38
2023-05-21T07:17:51.757Z,4.60
2023-05-21T07:23:15.869Z,4.85
2023-05-21T07:28:43.808Z,5.05
2023-05-21T07:34:07.632Z,4.75
2023-05-21T07:39:33.657Z,4.38
2023-05-21T07:45:00.647Z,4.55
2023-05-21T07:50:30.679Z,4.50
2023-05-21T07:55:56.923Z,4.10
2023-05-21T08:01:26.039Z,4.63
2023-05-21T08:06:44.826Z,4.10
2023-05-21T08:12:10.744Z,4.60
2023-05-21T08:17:38.709Z,4.20
2023-05-21T08:23:04.704Z,4.60
2023-05-21T08:28:35.680Z,4.47
2023-05-21T08:34:09.654Z,4.30
2023-05-21T08:39:40.686Z,4.33
2023-05-21T08:45:08.796Z,4.07
2023-05-21T08:50:38.987Z,4.05
2023-05-21T08:56:12.714Z,3.95
2023-05-21T09:01:42.726Z,3.70
2023-05-21T09:07:18.695Z,4.45
2023-05-21T09:13:24.700Z,3.40
2023-05-21T09:18:50.763Z,3.85
2023-05-21T09:24:24.723Z,3.50
2023-05-21T09:29:49.710Z,4.30
2023-05-21T09:35:19.711Z,4.18
2023-05-21T09:40:47.690Z,4.10
2023-05-21T09:46:12.702Z,3.80
2023-05-21T09:51:38.911Z,3.63
2023-05-21T09:57:06.751Z,3.58
2023-05-21T10:02:36.833Z,3.63
2023-05-21T10:08:02.793Z,3.47
2023-05-21T10:13:34.779Z,3.42
2023-05-21T10:19:00.930Z,3.22
2023-05-21T10:24:26.727Z,3.00
2023-05-21T10:29:55.746Z,3.20
2023-05-21T10:35:25.750Z,3.20
2023-05-21T10:40:56.853Z,3.10
2023-05-21T10:46:54.763Z,3.08
2023-05-21T10:52:29.773Z,3.00
2023-05-21T10:58:15.748Z,3.00
2023-05-21T11:03:43.879Z,2.50
2023-05-21T11:09:11.784Z,1.83
2023-05-21T11:14:48.762Z,2.00
2023-05-21T11:20:18.801Z,2.00
2023-05-21T11:25:43.013Z,1.85
2023-05-21T11:31:32.460Z,1.83
2023-05-21T11:37:00.792Z,1.83
2023-05-21T11:42:44.840Z,1.80
2023-05-21T11:48:09.865Z,1.80
2023-05-21T11:53:36.875Z,1.65
2023-05-21T11:59:04.988Z,1.50
2023-05-21T12:04:35.827Z,1.50
2023-05-21T12:10:03.814Z,1.60
2023-05-21T12:15:29.823Z,1.30
2023-05-21T12:20:54.959Z,1.60
2023-05-21T12:26:22.933Z,1.50
2023-05-21T12:31:57.861Z,1.42
2023-05-21T12:37:23.887Z,1.48
2023-05-21T12:42:58.815Z,1.48
2023-05-21T12:48:23.908Z,1.42
2023-05-21T12:53:53.830Z,1.30
2023-05-21T12:59:24.871Z,1.50
2023-05-21T13:04:51.885Z,1.17
2023-05-21T13:10:18.917Z,1.35
2023-05-21T13:15:45.884Z,1.20
2023-05-21T13:21:10.890Z,1.30
2023-05-21T13:26:34.899Z,1.25
2023-05-21T13:32:03.222Z,1.38
2023-05-21T13:37:27.195Z,1.40
2023-05-21T13:42:58.900Z,1.38
2023-05-21T13:48:26.919Z,1.30
2023-05-21T13:53:51.933Z,1.40
2023-05-21T13:59:16.920Z,1.35
2023-05-21T14:04:45.174Z,1.40
2023-05-21T14:10:10.040Z,1.40
2023-05-21T14:15:34.299Z,1.30
2023-05-21T14:21:02.951Z,1.40
2023-05-21T14:26:26.930Z,1.08
2023-05-21T14:31:52.972Z,1.20
2023-05-21T14:37:20.142Z,1.50
2023-05-21T14:42:51.959Z,1.20
2023-05-21T14:48:18.933Z,1.33
2023-05-21T14:53:56.079Z,1.50
2023-05-21T14:59:20.997Z,1.52
2023-05-21T15:04:44.936Z,1.50
2023-05-21T15:10:12.993Z,1.23
2023-05-21T15:15:38.195Z,1.20
2023-05-21T15:21:02.996Z,1.25
2023-05-21T15:26:31.996Z,1.20
2023-05-21T15:31:56.980Z,1.50
2023-05-21T15:37:21.972Z,1.20
2023-05-21T15:42:55.995Z,1.17
2023-05-21T15:48:21.974Z,1.50
2023-05-21T15:53:46.002Z,1.40
2023-05-21T15:59:14.015Z,1.40
2023-05-21T16:04:40.017Z,1.50
2023-05-21T16:10:05.025Z,1.60
2023-05-21T16:15:32.001Z,1.90
2023-05-21T16:20:57.014Z,1.80
2023-05-21T16:26:21.056Z,2.20
2023-05-21T16:31:49.128Z,2.00
2023-05-21T16:37:15.044Z,2.20
2023-05-21T16:42:47.016Z,1.90
2023-05-21T16:48:15.079Z,2.05
2023-05-21T16:53:39.028Z,1.90
2023-05-21T16:59:04.044Z,2.10
2023-05-21T17:04:31.074Z,1.95
2023-05-21T17:09:56.051Z,2.10
2023-05-21T17:15:22.066Z,2.10
2023-05-21T17:20:50.090Z,2.17
2023-05-21T17:26:16.073Z,2.38
2023-05-21T17:31:41.107Z,2.03
2023-05-21T17:37:10.069Z,2.20
2023-05-21T17:42:41.092Z,2.20
2023-05-21T17:53:33.080Z,2.30
2023-05-21T17:58:59.085Z,2.30
2023-05-21T18:04:24.265Z,2.30
2023-05-21T18:09:52.108Z,2.30
2023-05-21T18:15:16.112Z,2.40
2023-05-21T18:20:41.115Z,2.13
2023-05-21T18:26:08.096Z,2.20
2023-05-21T18:31:33.146Z,2.10
2023-05-21T18:36:57.133Z,1.98
2023-05-21T18:42:31.108Z,2.20
2023-05-21T18:47:56.252Z,2.22
2023-05-21T18:53:21.127Z,2.10
2023-05-21T18:58:49.152Z,1.92
2023-05-21T19:04:14.134Z,2.22
2023-05-21T19:09:40.146Z,2.00
2023-05-21T19:15:07.173Z,2.25
2023-05-21T19:20:34.183Z,2.20
2023-05-21T19:25:58.121Z,1.90
2023-05-21T19:31:26.136Z,2.10
2023-05-21T19:36:53.650Z,2.00
2023-05-21T19:42:26.192Z,2.15
2023-05-21T19:47:54.191Z,1.90
2023-05-21T19:53:18.221Z,2.10
2023-05-21T19:58:43.155Z,2.08
2023-05-21T20:04:11.239Z,2.10
2023-05-21T20:09:36.212Z,1.90
2023-05-21T20:15:01.256Z,2.10
2023-05-21T20:20:29.173Z,1.70
2023-05-21T20:25:53.198Z,2.13
2023-05-21T20:31:18.236Z,2.08
2023-05-21T20:36:47.246Z,2.00
2023-05-21T20:42:15.187Z,2.10
2023-05-21T20:47:40.245Z,2.17
2023-05-21T20:53:08.273Z,2.10
2023-05-21T20:58:33.203Z,2.15
2023-05-21T21:03:58.360Z,2.20
2023-05-21T21:09:26.200Z,2.20
2023-05-21T21:14:57.215Z,1.90
2023-05-21T21:20:24.228Z,2.00
2023-05-21T21:25:51.240Z,2.20
2023-05-21T21:31:16.240Z,2.00
2023-05-21T21:36:41.243Z,2.20
2023-05-21T21:42:09.250Z,2.25
2023-05-21T21:47:33.304Z,2.10
2023-05-21T21:53:02.296Z,2.05
2023-05-21T21:58:29.258Z,2.13
2023-05-21T22:03:54.302Z,2.20
2023-05-21T22:09:19.281Z,2.00
2023-05-21T22:14:47.284Z,2.30
2023-05-21T22:20:12.255Z,2.17
2023-05-21T22:25:37.260Z,2.20
2023-05-21T22:31:04.332Z,2.30
2023-05-21T22:36:29.279Z,2.05
2023-05-21T22:42:01.292Z,2.40
2023-05-21T22:47:31.304Z,2.17
2023-05-21T22:52:56.289Z,2.45
2023-05-21T22:58:21.304Z,2.30
2023-05-21T23:03:48.325Z,2.22
2023-05-21T23:09:13.311Z,2.20
2023-05-21T23:14:38.291Z,2.30
2023-05-21T23:20:06.324Z,2.30
2023-05-21T23:25:30.326Z,2.35
2023-05-21T23:30:56.293Z,2.42
2023-05-21T23:36:24.343Z,2.47
2023-05-21T23:41:49.318Z,2.40
2023-05-21T23:47:13.353Z,2.20
2023-05-21T23:52:41.376Z,2.40
2023-05-21T23:58:05.338Z,2.20
